sensor_id;sensor_type;location;lat;lon;timestamp;temperature;humidity
37560;DHT22;23398;50.928;7.084;2022-08-01T00:00:29;25.00;67.80
37560;DHT22;23398;50.928;7.084;2022-08-01T00:02:54;25.00;67.60
37560;DHT22;23398;50.928;7.084;2022-08-01T00:05:20;25.00;67.60
37560;DHT22;23398;50.928;7.084;2022-08-01T00:07:46;25.10;67.60
37560;DHT22;23398;50.928;7.084;2022-08-01T00:10:13;25.00;67.20
37560;DHT22;23398;50.928;7.084;2022-08-01T00:12:39;25.00;67.40
37560;DHT22;23398;50.928;7.084;2022-08-01T00:15:07;25.00;67.00
37560;DHT22;23398;50.928;7.084;2022-08-01T00:17:32;25.00;66.40
37560;DHT22;23398;50.928;7.084;2022-08-01T00:19:58;25.00;66.20
37560;DHT22;23398;50.928;7.084;2022-08-01T00:22:24;25.10;66.10
37560;DHT22;23398;50.928;7.084;2022-08-01T00:24:50;25.00;65.80
37560;DHT22;23398;50.928;7.084;2022-08-01T00:27:15;25.10;65.80
37560;DHT22;23398;50.928;7.084;2022-08-01T00:29:41;25.00;65.70
37560;DHT22;23398;50.928;7.084;2022-08-01T00:32:07;25.00;66.20
37560;DHT22;23398;50.928;7.084;2022-08-01T00:34:33;25.00;66.70
37560;DHT22;23398;50.928;7.084;2022-08-01T00:36:58;25.00;68.00
37560;DHT22;23398;50.928;7.084;2022-08-01T00:39:24;24.90;67.20
37560;DHT22;23398;50.928;7.084;2022-08-01T00:41:49;24.90;66.90
37560;DHT22;23398;50.928;7.084;2022-08-01T00:44:15;24.90;67.00
37560;DHT22;23398;50.928;7.084;2022-08-01T00:46:41;24.80;67.30
37560;DHT22;23398;50.928;7.084;2022-08-01T00:49:06;24.80;67.60
37560;DHT22;23398;50.928;7.084;2022-08-01T00:51:33;24.80;68.30
37560;DHT22;23398;50.928;7.084;2022-08-01T00:53:59;24.80;68.20
37560;DHT22;23398;50.928;7.084;2022-08-01T00:56:26;24.70;68.20
37560;DHT22;23398;50.928;7.084;2022-08-01T00:58:53;24.70;68.70
37560;DHT22;23398;50.928;7.084;2022-08-01T01:01:19;24.60;69.40
37560;DHT22;23398;50.928;7.084;2022-08-01T01:03:49;24.60;69.80
37560;DHT22;23398;50.928;7.084;2022-08-01T01:06:30;24.60;69.50
37560;DHT22;23398;50.928;7.084;2022-08-01T01:09:24;24.50;69.90
37560;DHT22;23398;50.928;7.084;2022-08-01T01:12:15;24.40;70.00
37560;DHT22;23398;50.928;7.084;2022-08-01T01:17:24;24.40;69.90
37560;DHT22;23398;50.928;7.084;2022-08-01T01:19:54;24.40;69.70
37560;DHT22;23398;50.928;7.084;2022-08-01T01:22:40;24.30;69.60
37560;DHT22;23398;50.928;7.084;2022-08-01T01:30:53;24.30;70.00
37560;DHT22;23398;50.928;7.084;2022-08-01T01:33:21;24.30;69.90
37560;DHT22;23398;50.928;7.084;2022-08-01T01:35:52;24.30;70.20
37560;DHT22;23398;50.928;7.084;2022-08-01T01:38:21;24.30;70.40
37560;DHT22;23398;50.928;7.084;2022-08-01T01:40:50;24.20;70.30
37560;DHT22;23398;50.928;7.084;2022-08-01T01:43:18;24.30;70.30
37560;DHT22;23398;50.928;7.084;2022-08-01T01:45:45;24.30;70.40
37560;DHT22;23398;50.928;7.084;2022-08-01T01:48:18;24.30;70.50
37560;DHT22;23398;50.928;7.084;2022-08-01T01:50:46;24.30;71.40
37560;DHT22;23398;50.928;7.084;2022-08-01T01:53:13;24.30;70.60
37560;DHT22;23398;50.928;7.084;2022-08-01T01:55:41;24.30;70.50
37560;DHT22;23398;50.928;7.084;2022-08-01T01:58:11;24.30;71.30
37560;DHT22;23398;50.928;7.084;2022-08-01T02:00:37;24.30;70.50
37560;DHT22;23398;50.928;7.084;2022-08-01T02:03:05;24.30;70.50
37560;DHT22;23398;50.928;7.084;2022-08-01T02:05:32;24.30;70.70
37560;DHT22;23398;50.928;7.084;2022-08-01T02:08:01;24.30;70.50
37560;DHT22;23398;50.928;7.084;2022-08-01T02:10:29;24.30;70.70
37560;DHT22;23398;50.928;7.084;2022-08-01T02:12:57;24.30;70.80
37560;DHT22;23398;50.928;7.084;2022-08-01T02:15:25;24.30;70.50
37560;DHT22;23398;50.928;7.084;2022-08-01T02:17:51;24.30;70.60
37560;DHT22;23398;50.928;7.084;2022-08-01T02:20:18;24.30;70.70
37560;DHT22;23398;50.928;7.084;2022-08-01T02:25:25;24.30;70.90
37560;DHT22;23398;50.928;7.084;2022-08-01T02:28:04;24.30;70.80
37560;DHT22;23398;50.928;7.084;2022-08-01T02:30:34;24.30;71.00
37560;DHT22;23398;50.928;7.084;2022-08-01T02:33:21;24.30;70.70
37560;DHT22;23398;50.928;7.084;2022-08-01T02:35:52;24.20;70.70
37560;DHT22;23398;50.928;7.084;2022-08-01T02:38:21;24.20;70.70
37560;DHT22;23398;50.928;7.084;2022-08-01T02:40:50;24.20;70.60
37560;DHT22;23398;50.928;7.084;2022-08-01T02:43:21;24.30;70.70
37560;DHT22;23398;50.928;7.084;2022-08-01T02:45:52;24.20;70.80
37560;DHT22;23398;50.928;7.084;2022-08-01T02:48:19;24.20;70.80
37560;DHT22;23398;50.928;7.084;2022-08-01T02:50:48;24.20;70.70
37560;DHT22;23398;50.928;7.084;2022-08-01T02:53:18;24.20;70.60
37560;DHT22;23398;50.928;7.084;2022-08-01T02:55:45;24.20;70.90
37560;DHT22;23398;50.928;7.084;2022-08-01T02:58:15;24.10;70.90
37560;DHT22;23398;50.928;7.084;2022-08-01T03:00:43;24.10;71.20
37560;DHT22;23398;50.928;7.084;2022-08-01T03:03:10;24.10;71.10
37560;DHT22;23398;50.928;7.084;2022-08-01T03:05:37;24.20;71.10
37560;DHT22;23398;50.928;7.084;2022-08-01T03:08:06;24.10;71.10
37560;DHT22;23398;50.928;7.084;2022-08-01T03:10:37;24.10;71.40
37560;DHT22;23398;50.928;7.084;2022-08-01T03:13:05;24.10;71.40
37560;DHT22;23398;50.928;7.084;2022-08-01T03:15:39;24.10;71.50
37560;DHT22;23398;50.928;7.084;2022-08-01T03:18:07;24.10;71.60
37560;DHT22;23398;50.928;7.084;2022-08-01T03:20:34;24.10;71.60
37560;DHT22;23398;50.928;7.084;2022-08-01T03:23:03;24.10;71.70
37560;DHT22;23398;50.928;7.084;2022-08-01T03:25:29;24.00;71.60
37560;DHT22;23398;50.928;7.084;2022-08-01T03:27:59;24.00;71.50
37560;DHT22;23398;50.928;7.084;2022-08-01T03:30:27;24.00;71.70
37560;DHT22;23398;50.928;7.084;2022-08-01T03:32:53;24.10;71.60
37560;DHT22;23398;50.928;7.084;2022-08-01T03:35:19;24.00;71.70
37560;DHT22;23398;50.928;7.084;2022-08-01T03:37:50;24.00;71.90
37560;DHT22;23398;50.928;7.084;2022-08-01T03:40:30;24.00;72.00
37560;DHT22;23398;50.928;7.084;2022-08-01T03:43:02;24.00;72.10
37560;DHT22;23398;50.928;7.084;2022-08-01T03:45:34;24.10;72.00
37560;DHT22;23398;50.928;7.084;2022-08-01T03:48:03;24.10;72.00
37560;DHT22;23398;50.928;7.084;2022-08-01T03:50:31;24.00;72.00
37560;DHT22;23398;50.928;7.084;2022-08-01T03:53:00;24.10;72.10
37560;DHT22;23398;50.928;7.084;2022-08-01T03:55:27;24.10;72.00
37560;DHT22;23398;50.928;7.084;2022-08-01T03:57:54;24.00;71.90
37560;DHT22;23398;50.928;7.084;2022-08-01T04:00:20;24.10;72.10
37560;DHT22;23398;50.928;7.084;2022-08-01T04:02:47;24.00;72.00
37560;DHT22;23398;50.928;7.084;2022-08-01T04:05:14;24.10;72.30
37560;DHT22;23398;50.928;7.084;2022-08-01T04:07:40;24.10;72.30
37560;DHT22;23398;50.928;7.084;2022-08-01T04:10:08;24.10;72.30
37560;DHT22;23398;50.928;7.084;2022-08-01T04:12:34;24.10;72.30
37560;DHT22;23398;50.928;7.084;2022-08-01T04:15:00;24.10;72.30
37560;DHT22;23398;50.928;7.084;2022-08-01T04:17:25;24.10;72.30
37560;DHT22;23398;50.928;7.084;2022-08-01T04:19:51;24.10;72.40
37560;DHT22;23398;50.928;7.084;2022-08-01T04:22:17;24.10;72.40
37560;DHT22;23398;50.928;7.084;2022-08-01T04:24:47;24.10;72.30
37560;DHT22;23398;50.928;7.084;2022-08-01T04:27:24;24.10;72.60
37560;DHT22;23398;50.928;7.084;2022-08-01T04:29:52;24.00;72.60
37560;DHT22;23398;50.928;7.084;2022-08-01T04:32:21;24.00;72.40
37560;DHT22;23398;50.928;7.084;2022-08-01T04:34:47;24.00;72.50
37560;DHT22;23398;50.928;7.084;2022-08-01T04:37:15;24.00;72.50
37560;DHT22;23398;50.928;7.084;2022-08-01T04:39:44;24.10;72.80
37560;DHT22;23398;50.928;7.084;2022-08-01T04:42:11;24.00;72.80
37560;DHT22;23398;50.928;7.084;2022-08-01T04:44:39;24.10;72.90
37560;DHT22;23398;50.928;7.084;2022-08-01T04:47:06;24.10;73.00
37560;DHT22;23398;50.928;7.084;2022-08-01T04:49:34;24.10;73.20
37560;DHT22;23398;50.928;7.084;2022-08-01T04:51:59;24.20;73.30
37560;DHT22;23398;50.928;7.084;2022-08-01T04:54:30;24.20;73.10
37560;DHT22;23398;50.928;7.084;2022-08-01T04:56:58;24.20;73.10
37560;DHT22;23398;50.928;7.084;2022-08-01T04:59:27;24.20;72.90
37560;DHT22;23398;50.928;7.084;2022-08-01T05:02:10;24.30;73.00
37560;DHT22;23398;50.928;7.084;2022-08-01T05:04:37;24.30;73.00
37560;DHT22;23398;50.928;7.084;2022-08-01T05:07:04;24.30;72.90
37560;DHT22;23398;50.928;7.084;2022-08-01T05:09:30;24.30;72.90
37560;DHT22;23398;50.928;7.084;2022-08-01T05:11:57;24.30;72.80
37560;DHT22;23398;50.928;7.084;2022-08-01T05:14:24;24.30;72.80
37560;DHT22;23398;50.928;7.084;2022-08-01T05:16:51;24.40;72.80
37560;DHT22;23398;50.928;7.084;2022-08-01T05:19:16;24.40;72.90
37560;DHT22;23398;50.928;7.084;2022-08-01T05:21:42;24.40;73.10
37560;DHT22;23398;50.928;7.084;2022-08-01T05:24:10;24.40;73.20
37560;DHT22;23398;50.928;7.084;2022-08-01T05:26:36;24.50;73.20
37560;DHT22;23398;50.928;7.084;2022-08-01T05:29:02;24.50;74.00
37560;DHT22;23398;50.928;7.084;2022-08-01T05:31:28;24.60;73.90
37560;DHT22;23398;50.928;7.084;2022-08-01T05:33:53;24.70;73.10
37560;DHT22;23398;50.928;7.084;2022-08-01T05:36:19;24.70;73.40
37560;DHT22;23398;50.928;7.084;2022-08-01T05:38:45;24.80;72.60
37560;DHT22;23398;50.928;7.084;2022-08-01T05:41:10;24.80;72.40
37560;DHT22;23398;50.928;7.084;2022-08-01T05:43:36;24.90;72.50
37560;DHT22;23398;50.928;7.084;2022-08-01T05:46:01;24.90;72.30
37560;DHT22;23398;50.928;7.084;2022-08-01T05:48:27;25.10;72.20
37560;DHT22;23398;50.928;7.084;2022-08-01T05:50:53;25.00;72.40
37560;DHT22;23398;50.928;7.084;2022-08-01T05:53:19;25.10;72.40
37560;DHT22;23398;50.928;7.084;2022-08-01T05:55:45;25.10;72.00
37560;DHT22;23398;50.928;7.084;2022-08-01T05:58:11;25.10;71.70
37560;DHT22;23398;50.928;7.084;2022-08-01T06:00:37;25.10;71.60
37560;DHT22;23398;50.928;7.084;2022-08-01T06:03:02;25.20;71.60
37560;DHT22;23398;50.928;7.084;2022-08-01T06:05:28;25.10;71.30
37560;DHT22;23398;50.928;7.084;2022-08-01T06:07:53;25.10;71.50
37560;DHT22;23398;50.928;7.084;2022-08-01T06:10:19;25.10;71.80
37560;DHT22;23398;50.928;7.084;2022-08-01T06:12:45;25.20;71.80
37560;DHT22;23398;50.928;7.084;2022-08-01T06:15:11;25.20;71.70
37560;DHT22;23398;50.928;7.084;2022-08-01T06:17:36;25.20;71.50
37560;DHT22;23398;50.928;7.084;2022-08-01T06:20:03;25.20;71.50
37560;DHT22;23398;50.928;7.084;2022-08-01T06:22:29;25.30;71.40
37560;DHT22;23398;50.928;7.084;2022-08-01T06:24:54;25.30;71.30
37560;DHT22;23398;50.928;7.084;2022-08-01T06:27:20;25.40;71.50
37560;DHT22;23398;50.928;7.084;2022-08-01T06:29:46;25.50;71.60
37560;DHT22;23398;50.928;7.084;2022-08-01T06:32:11;25.60;71.60
37560;DHT22;23398;50.928;7.084;2022-08-01T06:34:37;25.80;71.60
37560;DHT22;23398;50.928;7.084;2022-08-01T06:37:02;26.10;71.80
37560;DHT22;23398;50.928;7.084;2022-08-01T06:39:28;26.30;70.70
37560;DHT22;23398;50.928;7.084;2022-08-01T06:41:53;26.60;70.00
37560;DHT22;23398;50.928;7.084;2022-08-01T06:44:19;26.90;69.20
37560;DHT22;23398;50.928;7.084;2022-08-01T06:46:45;27.10;69.20
37560;DHT22;23398;50.928;7.084;2022-08-01T06:49:10;27.30;67.60
37560;DHT22;23398;50.928;7.084;2022-08-01T06:51:36;27.60;67.60
37560;DHT22;23398;50.928;7.084;2022-08-01T06:54:02;27.80;66.50
37560;DHT22;23398;50.928;7.084;2022-08-01T06:56:27;28.10;66.50
37560;DHT22;23398;50.928;7.084;2022-08-01T06:58:53;28.40;66.00
37560;DHT22;23398;50.928;7.084;2022-08-01T07:01:21;28.90;65.60
37560;DHT22;23398;50.928;7.084;2022-08-01T07:03:47;29.40;63.80
37560;DHT22;23398;50.928;7.084;2022-08-01T07:06:12;29.90;61.70
37560;DHT22;23398;50.928;7.084;2022-08-01T07:08:40;30.20;60.00
37560;DHT22;23398;50.928;7.084;2022-08-01T07:11:06;30.40;58.70
37560;DHT22;23398;50.928;7.084;2022-08-01T07:13:31;30.60;58.10
37560;DHT22;23398;50.928;7.084;2022-08-01T07:15:57;30.70;56.90
37560;DHT22;23398;50.928;7.084;2022-08-01T07:18:23;30.70;56.70
37560;DHT22;23398;50.928;7.084;2022-08-01T07:20:49;30.70;56.20
37560;DHT22;23398;50.928;7.084;2022-08-01T07:23:15;30.60;55.90
37560;DHT22;23398;50.928;7.084;2022-08-01T07:25:41;30.50;55.90
37560;DHT22;23398;50.928;7.084;2022-08-01T07:28:07;30.30;55.60
37560;DHT22;23398;50.928;7.084;2022-08-01T07:30:34;30.20;55.90
37560;DHT22;23398;50.928;7.084;2022-08-01T07:33:00;30.00;55.90
37560;DHT22;23398;50.928;7.084;2022-08-01T07:35:26;29.80;56.20
37560;DHT22;23398;50.928;7.084;2022-08-01T07:37:51;29.70;56.60
37560;DHT22;23398;50.928;7.084;2022-08-01T07:40:18;29.60;57.20
37560;DHT22;23398;50.928;7.084;2022-08-01T07:42:44;29.60;57.80
37560;DHT22;23398;50.928;7.084;2022-08-01T07:45:11;29.80;57.80
37560;DHT22;23398;50.928;7.084;2022-08-01T07:47:37;30.00;57.50
37560;DHT22;23398;50.928;7.084;2022-08-01T07:50:05;30.20;57.70
37560;DHT22;23398;50.928;7.084;2022-08-01T07:52:31;30.60;58.20
37560;DHT22;23398;50.928;7.084;2022-08-01T07:54:57;31.10;57.10
37560;DHT22;23398;50.928;7.084;2022-08-01T07:57:23;31.70;56.30
37560;DHT22;23398;50.928;7.084;2022-08-01T07:59:49;32.30;54.70
37560;DHT22;23398;50.928;7.084;2022-08-01T08:02:15;32.70;53.30
37560;DHT22;23398;50.928;7.084;2022-08-01T08:04:40;32.90;52.10
37560;DHT22;23398;50.928;7.084;2022-08-01T08:07:06;33.00;51.00
37560;DHT22;23398;50.928;7.084;2022-08-01T08:09:32;33.00;50.70
37560;DHT22;23398;50.928;7.084;2022-08-01T08:11:57;32.90;50.60
37560;DHT22;23398;50.928;7.084;2022-08-01T08:14:23;32.80;50.60
37560;DHT22;23398;50.928;7.084;2022-08-01T08:16:50;32.60;50.80
37560;DHT22;23398;50.928;7.084;2022-08-01T08:19:16;32.40;51.10
37560;DHT22;23398;50.928;7.084;2022-08-01T08:21:42;32.30;51.50
37560;DHT22;23398;50.928;7.084;2022-08-01T08:24:08;32.30;51.10
37560;DHT22;23398;50.928;7.084;2022-08-01T08:26:51;32.30;51.20
37560;DHT22;23398;50.928;7.084;2022-08-01T08:29:18;32.30;51.40
37560;DHT22;23398;50.928;7.084;2022-08-01T08:31:45;32.60;52.70
37560;DHT22;23398;50.928;7.084;2022-08-01T08:34:11;32.90;52.00
37560;DHT22;23398;50.928;7.084;2022-08-01T08:36:37;33.30;51.00
37560;DHT22;23398;50.928;7.084;2022-08-01T08:39:03;33.90;51.00
37560;DHT22;23398;50.928;7.084;2022-08-01T08:41:30;34.60;50.60
37560;DHT22;23398;50.928;7.084;2022-08-01T08:43:56;35.40;49.60
37560;DHT22;23398;50.928;7.084;2022-08-01T08:46:23;36.10;48.10
37560;DHT22;23398;50.928;7.084;2022-08-01T08:48:51;36.70;46.50
37560;DHT22;23398;50.928;7.084;2022-08-01T08:51:17;37.20;45.10
37560;DHT22;23398;50.928;7.084;2022-08-01T08:53:45;37.40;43.90
37560;DHT22;23398;50.928;7.084;2022-08-01T08:56:14;37.40;43.10
37560;DHT22;23398;50.928;7.084;2022-08-01T08:58:44;37.30;43.00
37560;DHT22;23398;50.928;7.084;2022-08-01T09:01:11;37.10;42.50
37560;DHT22;23398;50.928;7.084;2022-08-01T09:03:38;36.80;42.50
37560;DHT22;23398;50.928;7.084;2022-08-01T09:06:04;36.50;42.70
37560;DHT22;23398;50.928;7.084;2022-08-01T09:08:30;36.20;42.60
37560;DHT22;23398;50.928;7.084;2022-08-01T09:10:55;35.80;42.90
37560;DHT22;23398;50.928;7.084;2022-08-01T09:13:21;35.30;43.10
37560;DHT22;23398;50.928;7.084;2022-08-01T09:15:50;34.90;43.40
37560;DHT22;23398;50.928;7.084;2022-08-01T09:18:32;34.40;44.10
37560;DHT22;23398;50.928;7.084;2022-08-01T09:21:11;33.90;44.60
37560;DHT22;23398;50.928;7.084;2022-08-01T09:23:39;33.40;45.00
37560;DHT22;23398;50.928;7.084;2022-08-01T09:26:15;33.10;45.70
37560;DHT22;23398;50.928;7.084;2022-08-01T09:28:41;32.70;47.00
37560;DHT22;23398;50.928;7.084;2022-08-01T09:31:15;32.50;47.10
37560;DHT22;23398;50.928;7.084;2022-08-01T09:33:57;32.20;47.80
37560;DHT22;23398;50.928;7.084;2022-08-01T09:36:49;32.00;48.20
37560;DHT22;23398;50.928;7.084;2022-08-01T09:39:21;31.80;48.40
37560;DHT22;23398;50.928;7.084;2022-08-01T09:41:48;31.70;48.90
37560;DHT22;23398;50.928;7.084;2022-08-01T09:44:14;31.60;49.00
37560;DHT22;23398;50.928;7.084;2022-08-01T09:47:00;31.60;49.30
37560;DHT22;23398;50.928;7.084;2022-08-01T09:49:31;31.50;49.70
37560;DHT22;23398;50.928;7.084;2022-08-01T09:51:59;31.50;48.80
37560;DHT22;23398;50.928;7.084;2022-08-01T09:54:30;31.40;48.70
37560;DHT22;23398;50.928;7.084;2022-08-01T09:57:10;31.30;49.30
37560;DHT22;23398;50.928;7.084;2022-08-01T09:59:39;31.10;49.60
37560;DHT22;23398;50.928;7.084;2022-08-01T10:02:14;31.00;49.80
37560;DHT22;23398;50.928;7.084;2022-08-01T10:04:51;31.00;50.30
37560;DHT22;23398;50.928;7.084;2022-08-01T10:07:17;31.10;51.20
37560;DHT22;23398;50.928;7.084;2022-08-01T10:09:44;31.50;51.70
37560;DHT22;23398;50.928;7.084;2022-08-01T10:12:13;32.00;51.00
37560;DHT22;23398;50.928;7.084;2022-08-01T10:14:39;32.60;49.80
37560;DHT22;23398;50.928;7.084;2022-08-01T10:17:08;33.10;48.90
37560;DHT22;23398;50.928;7.084;2022-08-01T10:19:35;33.60;48.00
37560;DHT22;23398;50.928;7.084;2022-08-01T10:22:01;34.10;47.20
37560;DHT22;23398;50.928;7.084;2022-08-01T10:24:30;34.50;46.70
37560;DHT22;23398;50.928;7.084;2022-08-01T10:27:03;34.90;46.20
37560;DHT22;23398;50.928;7.084;2022-08-01T10:29:43;35.40;45.60
37560;DHT22;23398;50.928;7.084;2022-08-01T10:32:11;35.80;44.60
37560;DHT22;23398;50.928;7.084;2022-08-01T10:34:37;36.10;43.90
37560;DHT22;23398;50.928;7.084;2022-08-01T10:37:04;36.40;43.40
37560;DHT22;23398;50.928;7.084;2022-08-01T10:39:31;36.60;42.40
37560;DHT22;23398;50.928;7.084;2022-08-01T10:41:58;36.80;42.00
37560;DHT22;23398;50.928;7.084;2022-08-01T10:44:26;36.90;41.80
37560;DHT22;23398;50.928;7.084;2022-08-01T10:47:01;36.90;41.30
37560;DHT22;23398;50.928;7.084;2022-08-01T10:49:29;37.00;40.40
37560;DHT22;23398;50.928;7.084;2022-08-01T10:51:55;37.00;40.10
37560;DHT22;23398;50.928;7.084;2022-08-01T10:54:24;37.00;40.20
37560;DHT22;23398;50.928;7.084;2022-08-01T10:56:51;37.00;39.70
37560;DHT22;23398;50.928;7.084;2022-08-01T10:59:23;36.90;39.80
37560;DHT22;23398;50.928;7.084;2022-08-01T11:01:59;36.70;39.60
37560;DHT22;23398;50.928;7.084;2022-08-01T11:04:54;36.50;39.40
37560;DHT22;23398;50.928;7.084;2022-08-01T11:07:45;36.30;39.80
37560;DHT22;23398;50.928;7.084;2022-08-01T11:10:33;36.00;40.40
37560;DHT22;23398;50.928;7.084;2022-08-01T11:13:00;35.70;40.60
37560;DHT22;23398;50.928;7.084;2022-08-01T11:15:28;35.50;41.20
37560;DHT22;23398;50.928;7.084;2022-08-01T11:17:56;35.20;41.30
37560;DHT22;23398;50.928;7.084;2022-08-01T11:20:31;35.10;42.60
37560;DHT22;23398;50.928;7.084;2022-08-01T11:30:39;34.60;42.50
37560;DHT22;23398;50.928;7.084;2022-08-01T11:33:05;34.60;42.40
37560;DHT22;23398;50.928;7.084;2022-08-01T11:35:32;34.40;43.00
37560;DHT22;23398;50.928;7.084;2022-08-01T11:38:24;34.30;42.80
37560;DHT22;23398;50.928;7.084;2022-08-01T11:41:11;34.10;43.10
37560;DHT22;23398;50.928;7.084;2022-08-01T11:44:00;34.10;43.50
37560;DHT22;23398;50.928;7.084;2022-08-01T11:52:09;34.00;44.20
37560;DHT22;23398;50.928;7.084;2022-08-01T11:54:40;33.90;42.90
37560;DHT22;23398;50.928;7.084;2022-08-01T11:57:11;34.00;42.70
37560;DHT22;23398;50.928;7.084;2022-08-01T11:59:42;33.90;42.30
37560;DHT22;23398;50.928;7.084;2022-08-01T12:04:49;33.80;43.20
37560;DHT22;23398;50.928;7.084;2022-08-01T12:07:16;33.80;43.90
37560;DHT22;23398;50.928;7.084;2022-08-01T12:09:42;33.80;43.50
37560;DHT22;23398;50.928;7.084;2022-08-01T12:12:09;33.80;43.20
37560;DHT22;23398;50.928;7.084;2022-08-01T12:14:34;33.90;43.10
37560;DHT22;23398;50.928;7.084;2022-08-01T12:17:00;33.80;42.70
37560;DHT22;23398;50.928;7.084;2022-08-01T12:19:26;33.70;42.60
37560;DHT22;23398;50.928;7.084;2022-08-01T12:24:34;33.50;43.20
37560;DHT22;23398;50.928;7.084;2022-08-01T12:26:59;33.50;43.20
37560;DHT22;23398;50.928;7.084;2022-08-01T12:29:40;33.40;43.00
37560;DHT22;23398;50.928;7.084;2022-08-01T12:32:29;33.30;43.00
37560;DHT22;23398;50.928;7.084;2022-08-01T12:35:00;33.30;43.20
37560;DHT22;23398;50.928;7.084;2022-08-01T12:37:26;33.30;42.90
37560;DHT22;23398;50.928;7.084;2022-08-01T12:39:51;33.30;42.70
37560;DHT22;23398;50.928;7.084;2022-08-01T12:42:18;33.20;42.80
37560;DHT22;23398;50.928;7.084;2022-08-01T12:44:45;33.20;43.00
37560;DHT22;23398;50.928;7.084;2022-08-01T12:47:13;33.00;43.30
37560;DHT22;23398;50.928;7.084;2022-08-01T12:49:41;32.90;43.00
37560;DHT22;23398;50.928;7.084;2022-08-01T12:52:07;32.80;43.30
37560;DHT22;23398;50.928;7.084;2022-08-01T12:55:00;32.70;43.60
37560;DHT22;23398;50.928;7.084;2022-08-01T12:57:26;32.60;43.90
37560;DHT22;23398;50.928;7.084;2022-08-01T13:00:08;32.50;44.10
37560;DHT22;23398;50.928;7.084;2022-08-01T13:02:35;32.40;44.30
37560;DHT22;23398;50.928;7.084;2022-08-01T13:05:02;32.40;43.80
37560;DHT22;23398;50.928;7.084;2022-08-01T13:08:08;32.40;44.00
37560;DHT22;23398;50.928;7.084;2022-08-01T13:10:29;32.40;42.90
37560;DHT22;23398;50.928;7.084;2022-08-01T13:12:57;32.40;42.90
37560;DHT22;23398;50.928;7.084;2022-08-01T13:15:26;32.40;43.50
37560;DHT22;23398;50.928;7.084;2022-08-01T13:17:53;32.50;43.60
37560;DHT22;23398;50.928;7.084;2022-08-01T13:20:32;32.50;43.60
37560;DHT22;23398;50.928;7.084;2022-08-01T13:23:30;32.60;42.80
37560;DHT22;23398;50.928;7.084;2022-08-01T13:25:56;32.70;43.70
37560;DHT22;23398;50.928;7.084;2022-08-01T13:28:24;32.80;43.00
37560;DHT22;23398;50.928;7.084;2022-08-01T13:30:58;32.90;43.20
37560;DHT22;23398;50.928;7.084;2022-08-01T13:33:27;32.90;43.00
37560;DHT22;23398;50.928;7.084;2022-08-01T13:35:54;32.90;42.90
37560;DHT22;23398;50.928;7.084;2022-08-01T13:38:20;33.00;42.80
37560;DHT22;23398;50.928;7.084;2022-08-01T13:41:05;33.00;42.80
37560;DHT22;23398;50.928;7.084;2022-08-01T13:43:31;33.10;42.80
37560;DHT22;23398;50.928;7.084;2022-08-01T13:45:57;33.10;42.70
37560;DHT22;23398;50.928;7.084;2022-08-01T13:48:22;33.00;42.50
37560;DHT22;23398;50.928;7.084;2022-08-01T13:50:48;33.10;42.30
37560;DHT22;23398;50.928;7.084;2022-08-01T13:53:14;33.00;41.50
37560;DHT22;23398;50.928;7.084;2022-08-01T13:55:39;33.00;41.40
37560;DHT22;23398;50.928;7.084;2022-08-01T13:58:05;33.00;41.30
37560;DHT22;23398;50.928;7.084;2022-08-01T14:00:30;32.90;41.80
37560;DHT22;23398;50.928;7.084;2022-08-01T14:02:56;32.90;42.10
37560;DHT22;23398;50.928;7.084;2022-08-01T14:05:22;32.90;41.70
37560;DHT22;23398;50.928;7.084;2022-08-01T14:07:47;32.90;41.50
37560;DHT22;23398;50.928;7.084;2022-08-01T14:10:13;32.90;41.40
37560;DHT22;23398;50.928;7.084;2022-08-01T14:12:38;32.90;41.40
37560;DHT22;23398;50.928;7.084;2022-08-01T14:15:04;32.90;41.30
37560;DHT22;23398;50.928;7.084;2022-08-01T14:17:30;32.90;41.40
37560;DHT22;23398;50.928;7.084;2022-08-01T14:19:57;32.90;41.20
37560;DHT22;23398;50.928;7.084;2022-08-01T14:22:24;32.90;41.20
37560;DHT22;23398;50.928;7.084;2022-08-01T14:24:50;32.90;40.90
37560;DHT22;23398;50.928;7.084;2022-08-01T14:27:15;32.90;41.30
37560;DHT22;23398;50.928;7.084;2022-08-01T14:29:41;32.90;42.00
37560;DHT22;23398;50.928;7.084;2022-08-01T14:32:06;32.90;41.00
37560;DHT22;23398;50.928;7.084;2022-08-01T14:34:32;32.80;40.70
37560;DHT22;23398;50.928;7.084;2022-08-01T14:36:57;32.80;41.20
37560;DHT22;23398;50.928;7.084;2022-08-01T14:39:23;32.70;41.20
37560;DHT22;23398;50.928;7.084;2022-08-01T14:41:48;32.60;41.60
37560;DHT22;23398;50.928;7.084;2022-08-01T14:44:14;32.60;41.50
37560;DHT22;23398;50.928;7.084;2022-08-01T14:46:40;32.60;41.70
37560;DHT22;23398;50.928;7.084;2022-08-01T14:49:06;32.60;41.30
37560;DHT22;23398;50.928;7.084;2022-08-01T14:51:32;32.70;41.20
37560;DHT22;23398;50.928;7.084;2022-08-01T14:53:59;32.70;41.40
37560;DHT22;23398;50.928;7.084;2022-08-01T14:56:25;32.70;40.80
37560;DHT22;23398;50.928;7.084;2022-08-01T14:58:50;32.70;40.60
37560;DHT22;23398;50.928;7.084;2022-08-01T15:01:16;32.70;41.60
37560;DHT22;23398;50.928;7.084;2022-08-01T15:03:43;32.70;41.00
37560;DHT22;23398;50.928;7.084;2022-08-01T15:06:08;32.70;41.20
37560;DHT22;23398;50.928;7.084;2022-08-01T15:08:36;32.60;41.50
37560;DHT22;23398;50.928;7.084;2022-08-01T15:11:02;32.70;41.60
37560;DHT22;23398;50.928;7.084;2022-08-01T15:13:27;32.70;41.20
37560;DHT22;23398;50.928;7.084;2022-08-01T15:15:53;32.60;41.40
37560;DHT22;23398;50.928;7.084;2022-08-01T15:18:18;32.70;41.50
37560;DHT22;23398;50.928;7.084;2022-08-01T15:20:44;32.70;41.40
37560;DHT22;23398;50.928;7.084;2022-08-01T15:23:10;32.70;41.10
37560;DHT22;23398;50.928;7.084;2022-08-01T15:25:36;32.60;41.20
37560;DHT22;23398;50.928;7.084;2022-08-01T15:28:01;32.60;41.40
37560;DHT22;23398;50.928;7.084;2022-08-01T15:30:28;32.50;42.00
37560;DHT22;23398;50.928;7.084;2022-08-01T15:32:53;32.40;41.60
37560;DHT22;23398;50.928;7.084;2022-08-01T15:35:19;32.40;42.00
37560;DHT22;23398;50.928;7.084;2022-08-01T15:37:45;32.30;42.00
37560;DHT22;23398;50.928;7.084;2022-08-01T15:40:11;32.30;42.20
37560;DHT22;23398;50.928;7.084;2022-08-01T15:42:37;32.20;42.00
37560;DHT22;23398;50.928;7.084;2022-08-01T15:45:03;32.10;42.20
37560;DHT22;23398;50.928;7.084;2022-08-01T15:47:29;32.10;42.20
37560;DHT22;23398;50.928;7.084;2022-08-01T15:49:55;32.00;41.80
37560;DHT22;23398;50.928;7.084;2022-08-01T15:52:25;32.00;42.10
37560;DHT22;23398;50.928;7.084;2022-08-01T15:54:50;31.90;41.90
37560;DHT22;23398;50.928;7.084;2022-08-01T15:57:16;31.90;42.70
37560;DHT22;23398;50.928;7.084;2022-08-01T15:59:42;31.90;42.00
37560;DHT22;23398;50.928;7.084;2022-08-01T16:02:08;31.80;42.00
37560;DHT22;23398;50.928;7.084;2022-08-01T16:04:33;31.80;42.10
37560;DHT22;23398;50.928;7.084;2022-08-01T16:06:59;31.70;42.70